Time;durP1;ratioP1;P1;durP2;ratioP2;P2;SDS_P1;SDS_P2;PMS_P1;PMS_P2;Temp;Humidity;BMP_temperature;BMP_pressure;BME280_temperature;BME280_humidity;BME280_pressure;Samples;Min_cycle;Max_cycle;Signal;HPM_P1;HPM_P2
2021/05/29 00:02:11;;;;;;;1.00;1.00;;;22.90;56.10;;;;;;5052472;28;20554;-36
2021/05/29 00:04:37;;;;;;;0.80;0.80;;;23.00;56.70;;;;;;5050870;28;20052;-36
2021/05/29 00:07:03;;;;;;;1.35;1.00;;;22.90;56.20;;;;;;5049973;28;20410;-36
2021/05/29 00:09:29;;;;;;;0.80;0.80;;;22.90;56.20;;;;;;5054802;28;20112;-35
2021/05/29 00:11:54;;;;;;;0.80;0.80;;;22.90;56.90;;;;;;5056459;28;20057;-40
2021/05/29 00:14:20;;;;;;;0.70;0.70;;;22.80;56.40;;;;;;5056392;28;20045;-32
2021/05/29 00:16:45;;;;;;;0.70;0.70;;;22.80;56.30;;;;;;5051865;28;20583;-37
2021/05/29 00:19:11;;;;;;;0.75;0.75;;;22.70;56.80;;;;;;5068512;28;20040;-38
2021/05/29 00:21:36;;;;;;;1.05;0.80;;;22.60;57.50;;;;;;5058014;28;20490;-35
2021/05/29 00:24:02;;;;;;;0.80;0.80;;;22.60;57.80;;;;;;5055982;28;20041;-35
2021/05/29 00:26:28;;;;;;;0.80;0.80;;;22.60;57.10;;;;;;5056045;28;20032;-36
2021/05/29 00:28:54;;;;;;;0.60;0.60;;;22.60;57.50;;;;;;5056062;28;20029;-36
2021/05/29 00:31:19;;;;;;;1.10;1.00;;;22.60;56.90;;;;;;5051950;28;20036;-36
2021/05/29 00:33:45;;;;;;;0.90;0.90;;;22.50;57.00;;;;;;5057584;28;20108;-36
2021/05/29 00:36:10;;;;;;;0.70;0.70;;;22.50;57.00;;;;;;5055875;28;20025;-36
2021/05/29 00:38:36;;;;;;;0.65;0.65;;;22.50;57.10;;;;;;5056183;28;20125;-39
2021/05/29 00:41:07;;;;;;;0.70;0.70;;;22.50;57.20;;;;;;5055377;28;20024;-37
2021/05/29 00:43:33;;;;;;;0.70;0.70;;;22.60;57.00;;;;;;5052779;28;20554;-36
2021/05/29 00:45:59;;;;;;;1.27;0.80;;;22.50;57.30;;;;;;5053974;28;20021;-36
2021/05/29 00:48:24;;;;;;;0.85;0.85;;;22.50;57.30;;;;;;5057485;28;20135;-36
2021/05/29 00:50:50;;;;;;;0.95;0.82;;;22.40;57.40;;;;;;5056016;28;20026;-36
2021/05/29 00:53:17;;;;;;;0.80;0.80;;;22.40;57.40;;;;;;5055792;28;20687;-36
2021/05/29 00:55:42;;;;;;;1.15;0.80;;;22.50;57.30;;;;;;5054490;28;20394;-36
2021/05/29 00:58:08;;;;;;;0.68;0.68;;;22.40;58.10;;;;;;5052343;28;20039;-36
2021/05/29 01:00:33;;;;;;;0.90;0.90;;;22.50;57.30;;;;;;5036205;28;20567;-36
2021/05/29 01:02:59;;;;;;;0.95;0.95;;;22.40;57.40;;;;;;5053511;28;20033;-36
2021/05/29 01:05:25;;;;;;;0.65;0.65;;;22.40;57.40;;;;;;5031176;28;20041;-36
2021/05/29 01:07:52;;;;;;;1.02;0.80;;;22.40;57.50;;;;;;5051195;28;20092;-37
2021/05/29 01:10:18;;;;;;;0.90;0.90;;;22.40;57.40;;;;;;5050820;28;20403;-36
2021/05/29 01:12:44;;;;;;;0.98;0.98;;;22.40;57.50;;;;;;5057087;28;20087;-36
2021/05/29 01:15:10;;;;;;;0.75;0.70;;;22.40;58.00;;;;;;5055051;28;20506;-36
2021/05/29 01:17:36;;;;;;;0.80;0.80;;;22.40;57.40;;;;;;5055214;28;20033;-38
2021/05/29 01:20:03;;;;;;;0.55;0.55;;;22.50;57.20;;;;;;5055121;28;20017;-36
2021/05/29 01:22:48;;;;;;;0.70;0.70;;;22.50;57.10;;;;;;5051787;28;20040;-35
2021/05/29 01:25:28;;;;;;;0.77;0.77;;;22.50;57.20;;;;;;5050568;28;20167;-36
2021/05/29 01:28:04;;;;;;;0.80;0.80;;;22.50;57.20;;;;;;5064193;28;20455;-35
2021/05/29 01:30:36;;;;;;;0.82;0.82;;;22.40;57.20;;;;;;5055008;28;20024;-36
2021/05/29 01:33:01;;;;;;;0.70;0.70;;;22.40;57.30;;;;;;5055186;28;20029;-35
2021/05/29 01:35:27;;;;;;;0.95;0.88;;;22.40;57.30;;;;;;5054711;28;20033;-38
2021/05/29 01:37:53;;;;;;;0.73;0.73;;;22.50;57.30;;;;;;5054584;28;20107;-35
2021/05/29 01:40:18;;;;;;;0.80;0.80;;;22.40;57.40;;;;;;5050795;28;20029;-36
2021/05/29 01:42:44;;;;;;;0.80;0.80;;;22.40;57.60;;;;;;5071799;28;20120;-37
2021/05/29 01:45:10;;;;;;;0.80;0.80;;;22.30;57.50;;;;;;5054470;28;20502;-35
2021/05/29 01:47:41;;;;;;;0.60;0.60;;;22.30;57.50;;;;;;5052045;28;20652;-36
2021/05/29 01:50:07;;;;;;;0.80;0.80;;;22.30;57.50;;;;;;5054680;28;20028;-36
2021/05/29 01:52:47;;;;;;;0.60;0.60;;;22.30;57.50;;;;;;5051823;28;20025;-36
2021/05/29 01:55:14;;;;;;;0.60;0.60;;;22.30;57.50;;;;;;5050517;28;20073;-35
2021/05/29 01:57:39;;;;;;;0.60;0.60;;;22.30;57.40;;;;;;5056226;28;20086;-36
2021/05/29 02:00:05;;;;;;;0.60;0.60;;;22.30;57.50;;;;;;5054156;28;20041;-37
2021/05/29 02:02:31;;;;;;;0.73;0.73;;;22.30;57.60;;;;;;5054673;28;20028;-40
2021/05/29 02:04:56;;;;;;;0.60;0.60;;;22.40;57.40;;;;;;5053864;28;20582;-37
2021/05/29 02:07:25;;;;;;;0.68;0.68;;;22.30;57.50;;;;;;5050368;28;20036;-36
2021/05/29 02:09:50;;;;;;;0.80;0.80;;;22.40;57.40;;;;;;5053729;28;20087;-38
2021/05/29 02:12:16;;;;;;;0.57;0.57;;;22.40;57.30;;;;;;5055326;28;20499;-37
2021/05/29 02:14:42;;;;;;;0.68;0.68;;;22.30;57.50;;;;;;5054341;28;20036;-36
2021/05/29 02:17:08;;;;;;;0.80;0.80;;;22.30;57.50;;;;;;5053779;28;20545;-35
2021/05/29 02:19:34;;;;;;;0.70;0.70;;;22.30;57.60;;;;;;5052072;28;20411;-40
2021/05/29 02:21:59;;;;;;;0.60;0.60;;;22.30;57.50;;;;;;5052192;28;20057;-35
2021/05/29 02:24:25;;;;;;;0.70;0.70;;;22.30;57.50;;;;;;5055353;28;20052;-36
2021/05/29 02:26:50;;;;;;;0.70;0.70;;;22.30;57.60;;;;;;5053747;28;20031;-36
2021/05/29 02:29:16;;;;;;;0.77;0.77;;;22.30;57.60;;;;;;5030963;28;20557;-37
2021/05/29 02:31:41;;;;;;;0.70;0.70;;;22.30;57.50;;;;;;5040682;28;20063;-36
2021/05/29 02:34:07;;;;;;;0.80;0.80;;;22.30;57.40;;;;;;5049874;28;20037;-36
2021/05/29 02:36:33;;;;;;;0.80;0.80;;;22.30;57.40;;;;;;5055282;28;20407;-34
2021/05/29 02:38:58;;;;;;;0.60;0.60;;;22.20;57.70;;;;;;5053913;28;20036;-36
2021/05/29 02:41:24;;;;;;;0.63;0.63;;;22.20;57.60;;;;;;5052149;28;20083;-36
2021/05/29 02:43:49;;;;;;;0.73;0.73;;;22.20;57.80;;;;;;5053819;28;20032;-36
2021/05/29 02:46:15;;;;;;;0.50;0.50;;;22.20;57.60;;;;;;5033614;28;20410;-44
2021/05/29 02:48:41;;;;;;;0.60;0.60;;;22.20;57.80;;;;;;5055168;28;20077;-36
2021/05/29 02:51:06;;;;;;;0.70;0.60;;;22.20;57.70;;;;;;5059345;28;20032;-36
2021/05/29 02:53:32;;;;;;;0.80;0.80;;;22.30;57.70;;;;;;5058563;28;20686;-37
2021/05/29 02:55:58;;;;;;;0.55;0.55;;;22.30;57.50;;;;;;5053342;28;20036;-36
2021/05/29 02:58:23;;;;;;;0.60;0.60;;;22.20;58.30;;;;;;5031557;28;20419;-36
2021/05/29 03:00:49;;;;;;;1.00;0.55;;;22.20;57.60;;;;;;5052857;28;20059;-37
2021/05/29 03:03:15;;;;;;;0.80;0.80;;;22.20;57.70;;;;;;5031844;28;20038;-35
2021/05/29 03:05:42;;;;;;;0.60;0.60;;;22.20;57.70;;;;;;5047283;28;20036;-36
2021/05/29 03:08:08;;;;;;;0.65;0.65;;;22.20;57.70;;;;;;5046729;28;20044;-36
2021/05/29 03:10:34;;;;;;;0.70;0.70;;;22.20;57.70;;;;;;5064755;28;20032;-36
2021/05/29 03:13:00;;;;;;;0.70;0.70;;;22.20;57.60;;;;;;5051278;28;20485;-36
2021/05/29 03:15:26;;;;;;;0.90;0.90;;;22.20;57.60;;;;;;5054689;28;20139;-36
2021/05/29 03:17:53;;;;;;;0.98;0.98;;;22.10;57.50;;;;;;5053286;28;20029;-37
2021/05/29 03:20:21;;;;;;;0.60;0.60;;;22.10;57.70;;;;;;5053061;28;20111;-36
2021/05/29 03:22:47;;;;;;;0.85;0.85;;;22.10;57.70;;;;;;5051655;28;20129;-34
2021/05/29 03:25:14;;;;;;;0.70;0.70;;;22.10;57.80;;;;;;5049157;28;20122;-35
2021/05/29 03:27:39;;;;;;;0.80;0.80;;;22.10;58.50;;;;;;5054649;28;20021;-36
2021/05/29 03:30:07;;;;;;;0.70;0.70;;;22.10;57.80;;;;;;5052769;28;20040;-37
2021/05/29 03:32:33;;;;;;;0.68;0.68;;;22.10;57.80;;;;;;5053064;28;20036;-35
2021/05/29 03:34:58;;;;;;;0.70;0.70;;;22.10;57.80;;;;;;5052752;28;20020;-37
2021/05/29 03:37:24;;;;;;;0.70;0.70;;;22.10;58.40;;;;;;5049581;28;20033;-37
2021/05/29 03:39:50;;;;;;;0.60;0.60;;;22.10;57.80;;;;;;5052863;28;20017;-38
2021/05/29 03:42:15;;;;;;;0.75;0.75;;;22.20;57.60;;;;;;5054045;28;20127;-35
2021/05/29 03:44:41;;;;;;;0.70;0.70;;;22.20;57.50;;;;;;5054011;28;20494;-40
2021/05/29 03:47:06;;;;;;;0.65;0.65;;;22.20;57.60;;;;;;5057349;28;20486;-39
2021/05/29 03:49:32;;;;;;;0.60;0.60;;;22.10;57.70;;;;;;5054360;28;20032;-37
2021/05/29 03:51:58;;;;;;;0.70;0.70;;;22.10;57.70;;;;;;5055466;28;20037;-35
2021/05/29 03:54:23;;;;;;;0.60;0.60;;;22.10;57.70;;;;;;5058266;28;20021;-36
2021/05/29 03:56:49;;;;;;;0.43;0.43;;;22.10;57.70;;;;;;5032975;28;20061;-37
2021/05/29 03:59:15;;;;;;;0.60;0.60;;;22.10;58.40;;;;;;5048739;28;20040;-36
2021/05/29 04:01:42;;;;;;;0.70;0.70;;;22.00;57.90;;;;;;5055642;28;20628;-37
2021/05/29 04:04:08;;;;;;;0.63;0.63;;;22.00;57.90;;;;;;5053162;28;20036;-35
2021/05/29 04:06:33;;;;;;;0.70;0.70;;;22.10;57.60;;;;;;5058357;28;20398;-35
2021/05/29 04:08:59;;;;;;;0.70;0.70;;;22.10;57.70;;;;;;5056436;28;20025;-36
2021/05/29 04:11:25;;;;;;;0.55;0.55;;;22.00;57.70;;;;;;5056652;28;20025;-40
2021/05/29 04:13:50;;;;;;;0.70;0.70;;;22.00;57.70;;;;;;5056494;28;20017;-35
2021/05/29 04:16:16;;;;;;;0.50;0.50;;;22.00;57.90;;;;;;5051987;28;20104;-37
2021/05/29 04:18:41;;;;;;;0.70;0.70;;;22.00;57.80;;;;;;5057533;28;20434;-36
2021/05/29 04:21:07;;;;;;;0.50;0.50;;;22.00;58.40;;;;;;5056371;28;20052;-37
2021/05/29 04:23:32;;;;;;;0.55;0.55;;;21.90;58.10;;;;;;5056312;28;20387;-35
2021/05/29 04:25:58;;;;;;;0.60;0.60;;;22.00;58.00;;;;;;5056334;28;20538;-35
2021/05/29 04:28:24;;;;;;;0.82;0.82;;;22.00;57.90;;;;;;5052590;28;20075;-36
2021/05/29 04:30:49;;;;;;;0.70;0.70;;;22.00;57.90;;;;;;5056192;28;20028;-37
2021/05/29 04:33:15;;;;;;;0.70;0.70;;;21.90;57.90;;;;;;5056722;28;20037;-38
2021/05/29 04:35:40;;;;;;;0.57;0.57;;;22.00;57.90;;;;;;5056322;28;20109;-36
2021/05/29 04:38:06;;;;;;;0.80;0.80;;;22.00;57.70;;;;;;5055868;28;20514;-35
2021/05/29 04:40:31;;;;;;;0.60;0.60;;;22.00;57.80;;;;;;5053141;28;20025;-36
2021/05/29 04:43:00;;;;;;;0.63;0.63;;;22.00;57.80;;;;;;5054493;28;20053;-37
2021/05/29 04:45:25;;;;;;;0.60;0.60;;;22.00;58.00;;;;;;5040053;28;20031;-36
2021/05/29 04:47:53;;;;;;;0.68;0.68;;;22.00;57.80;;;;;;5055266;28;20029;-35
2021/05/29 04:50:18;;;;;;;0.63;0.63;;;22.10;57.60;;;;;;5055796;28;20071;-35
2021/05/29 04:52:45;;;;;;;0.68;0.68;;;22.00;57.70;;;;;;5054946;28;20021;-36
2021/05/29 04:55:11;;;;;;;0.80;0.80;;;22.00;57.80;;;;;;5051993;28;20043;-35
2021/05/29 04:57:36;;;;;;;0.63;0.63;;;22.00;57.60;;;;;;5036231;28;20029;-36
2021/05/29 05:00:03;;;;;;;0.70;0.70;;;22.10;57.50;;;;;;5049444;28;20045;-36
2021/05/29 05:02:29;;;;;;;0.70;0.70;;;22.10;57.50;;;;;;5048335;28;20025;-36
2021/05/29 05:04:55;;;;;;;0.90;0.90;;;22.10;57.50;;;;;;5055708;28;20502;-37
2021/05/29 05:07:20;;;;;;;0.60;0.60;;;22.10;57.50;;;;;;5052992;28;20021;-36
2021/05/29 05:09:46;;;;;;;0.70;0.70;;;22.20;57.30;;;;;;5055522;28;20028;-35
2021/05/29 05:12:11;;;;;;;0.80;0.80;;;22.20;57.30;;;;;;5053703;28;20556;-36
2021/05/29 05:14:37;;;;;;;0.70;0.70;;;22.00;57.60;;;;;;5053829;28;20120;-38
2021/05/29 05:17:03;;;;;;;0.65;0.65;;;22.00;58.30;;;;;;5053282;28;20486;-36
2021/05/29 05:19:29;;;;;;;0.60;0.60;;;22.00;57.60;;;;;;5051945;28;20033;-36
2021/05/29 05:21:54;;;;;;;0.70;0.70;;;22.10;57.50;;;;;;5067678;28;20024;-36
2021/05/29 05:24:20;;;;;;;0.80;0.80;;;22.00;57.60;;;;;;5052519;28;20040;-35
2021/05/29 05:26:45;;;;;;;0.75;0.75;;;22.00;57.50;;;;;;5052666;28;20025;-36
2021/05/29 05:29:11;;;;;;;0.60;0.60;;;22.00;57.60;;;;;;5052298;28;20039;-36
2021/05/29 05:31:37;;;;;;;0.68;0.68;;;22.00;57.60;;;;;;5052568;28;20103;-36
2021/05/29 05:34:08;;;;;;;0.70;0.70;;;22.00;57.50;;;;;;5050511;28;20047;-36
2021/05/29 05:36:34;;;;;;;0.57;0.57;;;22.00;57.70;;;;;;5054653;28;20029;-37
2021/05/29 05:39:00;;;;;;;0.70;0.70;;;22.00;57.70;;;;;;5050963;28;20055;-36
2021/05/29 05:41:26;;;;;;;0.70;0.70;;;21.90;57.80;;;;;;5052847;28;20056;-36
2021/05/29 05:43:51;;;;;;;0.70;0.70;;;21.90;57.90;;;;;;5052420;28;20023;-36
2021/05/29 05:46:17;;;;;;;0.70;0.70;;;22.00;57.90;;;;;;5050285;28;20082;-37
2021/05/29 05:48:43;;;;;;;0.60;0.60;;;22.00;57.80;;;;;;5054575;28;20079;-36
2021/05/29 05:51:08;;;;;;;0.73;0.73;;;21.90;57.70;;;;;;5053021;28;20052;-36
2021/05/29 05:53:34;;;;;;;0.70;0.70;;;22.00;57.80;;;;;;5052913;28;20055;-36
2021/05/29 05:56:03;;;;;;;0.80;0.80;;;22.00;58.20;;;;;;5052751;28;20028;-36
2021/05/29 05:58:29;;;;;;;0.60;0.60;;;22.10;57.50;;;;;;5051038;28;20633;-36
2021/05/29 06:00:55;;;;;;;0.80;0.80;;;22.10;57.40;;;;;;5051494;28;20103;-36
2021/05/29 06:03:21;;;;;;;0.80;0.80;;;22.10;57.40;;;;;;5054041;28;20029;-36
2021/05/29 06:05:47;;;;;;;0.80;0.80;;;22.10;57.20;;;;;;5052963;28;20035;-37
2021/05/29 06:08:13;;;;;;;0.70;0.70;;;22.20;57.20;;;;;;5034136;28;20491;-36
2021/05/29 06:10:39;;;;;;;0.70;0.70;;;22.10;57.20;;;;;;5051835;28;20036;-36
2021/05/29 06:13:07;;;;;;;0.90;0.90;;;22.10;57.20;;;;;;5050335;28;20441;-37
2021/05/29 06:20:49;;;;;;;0.90;0.90;;;22.30;57.00;;;;;;5050767;28;20031;-37
2021/05/29 06:23:15;;;;;;;0.60;0.60;;;22.30;57.00;;;;;;5050078;28;20017;-37
2021/05/29 06:25:41;;;;;;;0.60;0.60;;;22.20;57.00;;;;;;5051816;28;20108;-35
2021/05/29 06:28:07;;;;;;;0.63;0.63;;;22.20;57.00;;;;;;5050016;28;20104;-35
2021/05/29 06:30:33;;;;;;;0.73;0.73;;;22.30;56.90;;;;;;5065980;28;20083;-36
2021/05/29 06:32:58;;;;;;;0.75;0.75;;;22.30;56.90;;;;;;5052536;28;20079;-36
2021/05/29 06:35:24;;;;;;;0.88;0.88;;;22.30;56.80;;;;;;5052652;28;20024;-36
2021/05/29 06:37:50;;;;;;;0.98;0.98;;;22.30;56.80;;;;;;5051835;28;20027;-36
2021/05/29 06:40:15;;;;;;;0.80;0.80;;;22.30;56.80;;;;;;5049945;28;20049;-36
2021/05/29 06:42:41;;;;;;;0.80;0.80;;;22.40;56.60;;;;;;5054076;28;20025;-35
2021/05/29 06:45:07;;;;;;;0.70;0.70;;;22.40;56.40;;;;;;5049722;28;20033;-37
2021/05/29 06:47:34;;;;;;;0.63;0.63;;;22.50;56.40;;;;;;5049843;28;20048;-37
2021/05/29 06:50:00;;;;;;;0.80;0.80;;;22.40;56.40;;;;;;5052049;28;20056;-37
2021/05/29 06:52:28;;;;;;;0.80;0.80;;;22.40;56.50;;;;;;5049801;28;20059;-38
2021/05/29 07:00:22;;;;;;;0.88;0.88;;;22.40;56.70;;;;;;5050260;28;21743;-36
2021/05/29 07:02:48;;;;;;;0.80;0.80;;;22.50;56.50;;;;;;5060943;28;20037;-35
2021/05/29 07:05:14;;;;;;;0.70;0.70;;;22.40;56.60;;;;;;5061334;28;20025;-34
2021/05/29 07:07:43;;;;;;;0.95;0.95;;;22.40;56.70;;;;;;5051803;28;20506;-37
2021/05/29 07:10:09;;;;;;;0.80;0.80;;;22.30;57.30;;;;;;5057700;28;20047;-36
2021/05/29 07:12:34;;;;;;;2.20;0.80;;;22.40;56.60;;;;;;5054698;28;20075;-36
2021/05/29 07:15:00;;;;;;;0.80;0.80;;;22.40;56.50;;;;;;5053355;28;20576;-36
2021/05/29 07:17:31;;;;;;;0.80;0.80;;;22.50;56.30;;;;;;5052496;28;20029;-37
2021/05/29 07:19:57;;;;;;;0.70;0.70;;;22.60;56.30;;;;;;5048929;28;20028;-36
2021/05/29 07:22:22;;;;;;;0.80;0.80;;;22.60;56.60;;;;;;5049476;28;20033;-36
2021/05/29 07:24:48;;;;;;;0.77;0.70;;;22.60;56.30;;;;;;5053100;28;20037;-40
2021/05/29 07:27:14;;;;;;;0.77;0.77;;;22.60;56.30;;;;;;5053838;28;20029;-36
2021/05/29 07:29:39;;;;;;;0.70;0.70;;;22.50;56.30;;;;;;5048373;28;20033;-36
2021/05/29 07:32:05;;;;;;;0.75;0.60;;;22.50;56.50;;;;;;5050692;28;20021;-36
2021/05/29 07:34:31;;;;;;;0.57;0.57;;;22.50;56.50;;;;;;5055765;28;20501;-35
2021/05/29 07:36:56;;;;;;;0.52;0.50;;;22.60;56.40;;;;;;5051086;28;20064;-37
2021/05/29 07:39:22;;;;;;;0.60;0.60;;;22.60;56.50;;;;;;5053827;28;20025;-40
2021/05/29 07:41:47;;;;;;;3.00;0.70;;;22.50;56.60;;;;;;5053091;28;20448;-37
2021/05/29 07:44:13;;;;;;;0.50;0.50;;;22.50;56.50;;;;;;5048620;28;20036;-36
2021/05/29 07:46:38;;;;;;;0.70;0.70;;;22.60;56.60;;;;;;5051175;28;20028;-35
2021/05/29 07:49:05;;;;;;;0.77;0.77;;;22.60;56.50;;;;;;5050078;28;20057;-37
2021/05/29 07:51:36;;;;;;;0.93;0.93;;;22.60;56.40;;;;;;5064187;28;20016;-37
2021/05/29 07:54:05;;;;;;;0.77;0.77;;;22.60;56.30;;;;;;5036651;28;20037;-36
2021/05/29 07:56:30;;;;;;;0.75;0.75;;;22.50;56.70;;;;;;5052399;28;20052;-37
2021/05/29 07:58:58;;;;;;;2.10;0.90;;;22.60;56.50;;;;;;5051507;28;20056;-33
2021/05/29 08:01:24;;;;;;;0.88;0.88;;;22.50;56.60;;;;;;5049514;28;20499;-36
2021/05/29 08:03:49;;;;;;;1.00;0.98;;;22.50;56.70;;;;;;5052966;28;20486;-36
2021/05/29 08:06:17;;;;;;;0.88;0.88;;;22.50;56.70;;;;;;5051188;28;20068;-37
2021/05/29 08:08:43;;;;;;;0.90;0.90;;;22.50;56.80;;;;;;5049809;28;20595;-37
2021/05/29 08:11:16;;;;;;;1.00;1.00;;;22.50;56.90;;;;;;5048971;28;20025;-37
2021/05/29 08:13:42;;;;;;;1.50;0.93;;;22.40;56.90;;;;;;5046102;28;20029;-37
2021/05/29 08:16:08;;;;;;;1.10;1.00;;;22.50;56.80;;;;;;5044104;28;20029;-36
2021/05/29 08:18:34;;;;;;;0.85;0.85;;;22.40;56.90;;;;;;5046179;28;20090;-35
2021/05/29 08:20:59;;;;;;;2.80;1.23;;;22.30;57.50;;;;;;5047264;28;20060;-37
2021/05/29 08:23:25;;;;;;;1.10;1.00;;;22.20;58.00;;;;;;5046560;28;20507;-37
2021/05/29 08:25:50;;;;;;;1.38;1.00;;;22.20;58.40;;;;;;5047980;28;20130;-37
2021/05/29 08:28:16;;;;;;;1.23;1.23;;;22.30;58.40;;;;;;5047197;28;20033;-36
2021/05/29 08:30:41;;;;;;;1.00;1.00;;;22.30;57.90;;;;;;5050584;28;20039;-36
2021/05/29 08:33:07;;;;;;;0.93;0.93;;;22.40;57.80;;;;;;5051869;28;20029;-36
2021/05/29 08:35:33;;;;;;;0.82;0.82;;;22.40;58.00;;;;;;5052292;28;20048;-36
2021/05/29 08:37:58;;;;;;;0.75;0.73;;;22.60;57.90;;;;;;5052643;28;20025;-36
2021/05/29 08:40:24;;;;;;;0.88;0.88;;;22.60;57.70;;;;;;5050977;28;20040;-36
2021/05/29 08:42:50;;;;;;;0.80;0.80;;;22.70;57.50;;;;;;5052273;28;20447;-36
2021/05/29 08:45:16;;;;;;;1.40;1.30;;;22.70;57.50;;;;;;5056280;28;20107;-36
2021/05/29 08:47:42;;;;;;;1.60;1.50;;;22.70;57.20;;;;;;5053590;28;20545;-36
2021/05/29 08:50:08;;;;;;;1.17;1.10;;;22.80;57.10;;;;;;5050044;28;20025;-36
2021/05/29 08:52:37;;;;;;;1.63;1.50;;;22.70;57.50;;;;;;5031272;28;20078;-34
2021/05/29 08:55:13;;;;;;;1.23;1.23;;;22.70;57.40;;;;;;5033852;28;20751;-37
2021/05/29 08:57:39;;;;;;;2.45;1.58;;;22.60;57.10;;;;;;5055001;28;20455;-36
2021/05/29 09:00:09;;;;;;;2.10;1.90;;;22.60;57.10;;;;;;5051593;28;20048;-36
2021/05/29 09:03:04;;;;;;;1.60;1.50;;;22.60;57.10;;;;;;5052968;28;20029;-38
2021/05/29 09:05:38;;;;;;;1.83;1.60;;;22.70;57.00;;;;;;5050795;28;20071;-35
2021/05/29 09:08:13;;;;;;;1.80;1.70;;;22.90;57.40;;;;;;5053688;28;20416;-35
2021/05/29 09:10:53;;;;;;;1.80;1.70;;;22.90;56.50;;;;;;5036200;28;20029;-36
2021/05/29 09:13:19;;;;;;;3.28;1.80;;;23.00;56.40;;;;;;5047695;28;20445;-35
2021/05/29 09:16:14;;;;;;;2.35;2.25;;;23.00;56.20;;;;;;5055589;28;20021;-36
2021/05/29 09:18:41;;;;;;;2.00;1.90;;;22.80;56.40;;;;;;5054934;28;20044;-36
2021/05/29 09:21:26;;;;;;;2.95;1.92;;;22.70;56.50;;;;;;5050671;28;20380;-36
2021/05/29 09:23:59;;;;;;;2.50;2.30;;;22.70;56.40;;;;;;5051043;28;20033;-36
2021/05/29 09:26:43;;;;;;;2.40;2.20;;;22.70;56.80;;;;;;5054657;28;20054;-34
2021/05/29 09:29:17;;;;;;;;;;;22.70;56.80;;;;;;5053339;28;20029;-34
2021/05/29 09:32:03;;;;;;;2.00;1.90;;;22.90;56.60;;;;;;5048996;28;19934;-35
2021/05/29 09:34:41;;;;;;;2.20;2.00;;;22.90;56.30;;;;;;5050116;28;20032;-37
2021/05/29 09:37:17;;;;;;;2.45;1.90;;;22.80;56.50;;;;;;5051584;28;20109;-35
2021/05/29 09:39:45;;;;;;;2.30;2.20;;;22.90;56.60;;;;;;5053337;28;20039;-34
2021/05/29 09:42:11;;;;;;;2.15;2.00;;;22.90;56.50;;;;;;5047102;28;20033;-36
2021/05/29 09:44:37;;;;;;;2.25;2.05;;;22.90;56.10;;;;;;5049207;28;20045;-36
2021/05/29 09:47:04;;;;;;;2.50;2.30;;;23.00;56.20;;;;;;5051289;28;20021;-35
2021/05/29 09:49:48;;;;;;;1.75;1.65;;;23.00;56.90;;;;;;5049270;28;20568;-35
2021/05/29 09:52:39;;;;;;;2.40;2.00;;;23.20;56.40;;;;;;5048672;28;20029;-34
2021/05/29 09:55:05;;;;;;;5.45;2.08;;;23.30;55.90;;;;;;5049663;28;20025;-33
2021/05/29 09:57:31;;;;;;;2.00;1.90;;;23.30;55.70;;;;;;5051080;28;20040;-34
2021/05/29 09:59:58;;;;;;;2.30;2.20;;;23.20;55.60;;;;;;5048852;28;20041;-35
2021/05/29 10:02:24;;;;;;;1.90;1.80;;;23.20;55.90;;;;;;5048328;28;20036;-34
2021/05/29 10:04:53;;;;;;;2.20;2.10;;;23.20;55.90;;;;;;5048315;28;21018;-34
2021/05/29 10:07:19;;;;;;;2.00;1.90;;;23.50;55.50;;;;;;5047324;28;20040;-34
2021/05/29 10:09:44;;;;;;;2.17;2.03;;;23.50;55.60;;;;;;5050021;28;20055;-43
2021/05/29 10:12:10;;;;;;;2.03;1.92;;;23.50;55.60;;;;;;5048141;28;20029;-42
2021/05/29 10:14:36;;;;;;;2.30;2.17;;;23.60;55.40;;;;;;5049682;28;20408;-42
2021/05/29 10:17:10;;;;;;;2.40;2.30;;;23.60;55.50;;;;;;5049291;28;20020;-43
2021/05/29 10:19:38;;;;;;;2.63;1.73;;;23.50;55.40;;;;;;5047324;28;20076;-43
2021/05/29 10:22:05;;;;;;;2.10;2.00;;;23.50;55.60;;;;;;5049039;28;20487;-43
2021/05/29 10:24:31;;;;;;;2.25;2.15;;;23.40;55.90;;;;;;5052243;28;20048;-43
2021/05/29 10:26:57;;;;;;;2.33;2.22;;;23.30;56.00;;;;;;5050323;28;20048;-43
2021/05/29 10:29:26;;;;;;;2.38;1.85;;;23.30;56.10;;;;;;5050489;28;20027;-45
2021/05/29 10:31:55;;;;;;;2.30;2.10;;;23.20;56.20;;;;;;5050268;28;20028;-43
2021/05/29 10:34:48;;;;;;;2.15;1.95;;;23.20;56.20;;;;;;5029982;28;20036;-44
2021/05/29 10:37:16;;;;;;;1.98;1.88;;;23.20;56.40;;;;;;5034540;28;20100;-41
2021/05/29 10:39:42;;;;;;;1.85;1.75;;;23.10;56.30;;;;;;5053645;28;20067;-43
2021/05/29 10:42:08;;;;;;;2.03;1.92;;;23.30;56.30;;;;;;5051283;28;20032;-42
2021/05/29 10:44:36;;;;;;;2.00;1.88;;;23.30;56.10;;;;;;5053163;28;20040;-40
2021/05/29 10:47:07;;;;;;;1.90;1.80;;;23.30;56.20;;;;;;5050539;28;20054;-44
2021/05/29 10:49:51;;;;;;;1.77;1.67;;;23.30;56.80;;;;;;5049711;28;20033;-45
2021/05/29 10:52:36;;;;;;;2.03;1.52;;;23.40;56.20;;;;;;5044242;28;20499;-43
2021/05/29 10:55:16;;;;;;;1.80;1.70;;;23.50;55.90;;;;;;5045839;28;20040;-43
2021/05/29 10:58:03;;;;;;;1.80;1.70;;;23.50;55.90;;;;;;5050147;28;20032;-43
2021/05/29 11:00:35;;;;;;;1.80;1.70;;;23.40;55.90;;;;;;5048967;28;20098;-43
2021/05/29 11:03:16;;;;;;;2.35;1.63;;;23.50;56.00;;;;;;5049451;28;20462;-42
2021/05/29 11:05:48;;;;;;;2.45;2.13;;;23.50;55.90;;;;;;5049436;28;20171;-44
2021/05/29 11:09:02;;;;;;;2.00;1.90;;;23.50;55.70;;;;;;5014857;28;20029;-44
2021/05/29 11:14:03;;;;;;;2.00;1.90;;;23.70;55.00;;;;;;5049840;28;20067;-44
2021/05/29 11:16:52;;;;;;;2.00;1.90;;;23.90;54.80;;;;;;5049780;28;20108;-43
2021/05/29 11:19:22;;;;;;;1.70;1.60;;;23.90;54.20;;;;;;5047056;28;20024;-43
2021/05/29 11:22:13;;;;;;;2.00;1.90;;;24.00;54.10;;;;;;5049403;28;20017;-51
2021/05/29 11:24:53;;;;;;;1.83;1.73;;;23.90;54.20;;;;;;5051012;28;20037;-44
2021/05/29 11:27:26;;;;;;;2.72;1.65;;;24.00;53.60;;;;;;5051852;28;20033;-43
2021/05/29 11:30:06;;;;;;;2.83;1.97;;;24.10;53.60;;;;;;5050962;28;20024;-43
2021/05/29 11:35:43;;;;;;;1.38;1.38;;;24.20;53.10;;;;;;5051754;28;20040;-45
2021/05/29 11:38:14;;;;;;;2.50;1.80;;;24.20;52.90;;;;;;5051271;28;20021;-43
2021/05/29 11:40:46;;;;;;;2.20;1.80;;;24.10;53.10;;;;;;5049476;28;20039;-44
2021/05/29 11:43:12;;;;;;;1.80;1.70;;;24.00;53.40;;;;;;5049090;28;20052;-45
2021/05/29 11:45:38;;;;;;;4.78;1.92;;;23.90;54.10;;;;;;5052362;28;20037;-43
2021/05/29 11:48:06;;;;;;;1.60;1.50;;;23.80;54.10;;;;;;5051693;28;20506;-43
2021/05/29 11:50:39;;;;;;;1.65;1.55;;;23.80;54.20;;;;;;5052057;28;20036;-44
2021/05/29 11:53:06;;;;;;;1.77;1.67;;;23.70;54.10;;;;;;5048016;28;20033;-44
2021/05/29 11:55:48;;;;;;;1.85;1.75;;;23.60;54.40;;;;;;5031088;28;20047;-44
2021/05/29 11:58:13;;;;;;;1.60;1.50;;;23.60;54.40;;;;;;5031388;28;20649;-43
2021/05/29 12:00:39;;;;;;;3.05;1.70;;;23.70;54.30;;;;;;5034946;28;20053;-44
2021/05/29 12:03:04;;;;;;;2.38;1.50;;;23.80;54.10;;;;;;5018622;28;20522;-44
2021/05/29 12:05:37;;;;;;;2.00;1.70;;;23.80;54.10;;;;;;5053830;28;20044;-45
2021/05/29 12:08:06;;;;;;;3.53;1.67;;;23.90;54.30;;;;;;5056027;28;20494;-42
2021/05/29 12:10:51;;;;;;;1.70;1.60;;;24.00;53.80;;;;;;5053596;28;20056;-43
2021/05/29 12:13:24;;;;;;;1.33;1.30;;;24.00;54.10;;;;;;5047762;28;20047;-46
2021/05/29 12:16:01;;;;;;;1.40;1.30;;;24.10;53.20;;;;;;5036886;28;20036;-43
2021/05/29 12:18:46;;;;;;;1.92;1.25;;;24.00;53.10;;;;;;5059404;28;20029;-43
2021/05/29 12:21:12;;;;;;;1.40;1.30;;;23.90;52.50;;;;;;5057745;28;20073;-45
2021/05/29 12:23:51;;;;;;;2.15;1.20;;;23.90;52.60;;;;;;5057510;28;20045;-43
2021/05/29 12:26:18;;;;;;;1.42;1.30;;;23.80;52.50;;;;;;5035857;28;20024;-43
2021/05/29 12:28:43;;;;;;;1.30;1.20;;;23.80;52.60;;;;;;5031677;28;20028;-45
2021/05/29 12:31:09;;;;;;;1.42;1.33;;;23.90;52.70;;;;;;5053828;28;20105;-45
2021/05/29 12:33:35;;;;;;;1.67;1.58;;;23.70;53.10;;;;;;5052211;28;20017;-44
2021/05/29 12:36:08;;;;;;;1.77;1.52;;;23.60;53.50;;;;;;5051483;28;20063;-43
2021/05/29 12:38:33;;;;;;;1.80;1.70;;;23.50;53.50;;;;;;5051129;28;20025;-45
2021/05/29 12:41:08;;;;;;;1.75;1.52;;;23.50;53.90;;;;;;5052636;28;20618;-45
2021/05/29 12:43:34;;;;;;;2.45;1.80;;;23.40;54.40;;;;;;5051150;28;20460;-44
2021/05/29 12:46:00;;;;;;;1.75;1.65;;;23.40;54.80;;;;;;5051088;28;20072;-44
2021/05/29 12:48:25;;;;;;;1.90;1.77;;;23.40;55.40;;;;;;5036506;28;20025;-44
2021/05/29 12:51:10;;;;;;;2.20;2.10;;;23.30;56.10;;;;;;5034922;28;20124;-43
2021/05/29 12:53:37;;;;;;;1.85;1.77;;;23.30;56.50;;;;;;5052982;28;20071;-44
2021/05/29 12:56:07;;;;;;;1.95;1.85;;;23.30;56.30;;;;;;5035021;28;20105;-43
2021/05/29 12:58:32;;;;;;;2.20;2.10;;;23.40;55.60;;;;;;5048685;28;20036;-44
2021/05/29 13:01:22;;;;;;;2.97;2.35;;;23.50;55.60;;;;;;5033483;28;20124;-43
2021/05/29 13:09:39;;;;;;;2.72;2.30;;;23.40;56.20;;;;;;5056074;28;20044;-43
2021/05/29 13:12:13;;;;;;;2.70;2.00;;;23.60;55.90;;;;;;5038001;28;20033;-43
2021/05/29 13:14:38;;;;;;;1.90;1.80;;;23.60;56.20;;;;;;5031728;28;20025;-45
2021/05/29 13:17:05;;;;;;;2.55;2.00;;;23.60;55.80;;;;;;5050074;28;20017;-43